Terminal Aerodrome Forecast
Issued by NWS

Home | Current Version | Previous Version | Text Only | Print | Product List | Glossary On
Versions: 1 2 3 4 5 6 7 8 9 10 11 12 13
000
FTUS43 KABR 192336
TAFATY
TAF
KATY 192336Z 2000/2024 16015G20KT P6SM SCT250
     FM200200 17016G24KT P6SM BKN200 WS020/19045KT
     FM200800 18016G24KT P6SM VCSH OVC050
     FM201100 18017G24KT 3SM BR VCTS OVC008CB
     FM201700 26014G23KT P6SM BKN008
     FM201900 28016G24KT P6SM BKN050=

USA.gov is the U.S. government's official web portal to all federal, state and local government web resources and services.